Time;durP1;ratioP1;P1;durP2;ratioP2;P2;SDS_P1;SDS_P2;PMS_P1;PMS_P2;Temp;Humidity;BMP_temperature;BMP_pressure;BME280_temperature;BME280_humidity;BME280_pressure;Samples;Min_cycle;Max_cycle;Signal;HPM_P1;HPM_P2
2023/06/20 00:02:11;;;;;;;15.93;10.23;;;;;;;19.77;nan;100472.59;5064502;28;20175;-72
2023/06/20 00:04:36;;;;;;;17.05;10.10;;;;;;;19.78;nan;100516.16;5063686;28;20059;-72
2023/06/20 00:07:02;;;;;;;12.70;9.45;;;;;;;19.71;nan;100500.47;5062868;28;20090;-72
2023/06/20 00:09:27;;;;;;;17.00;9.50;;;;;;;19.71;nan;100473.75;5045680;28;20040;-72
2023/06/20 00:11:53;;;;;;;14.32;10.50;;;;;;;19.66;nan;100471.09;5063919;28;20416;-72
2023/06/20 00:14:18;;;;;;;18.23;9.73;;;;;;;19.62;nan;100467.41;5045609;28;20032;-72
2023/06/20 00:16:44;;;;;;;17.77;10.13;;;;;;;19.54;nan;100452.00;5062438;28;20687;-73
2023/06/20 00:19:09;;;;;;;14.93;9.80;;;;;;;19.53;nan;100461.06;5064175;28;20031;-73
2023/06/20 00:21:34;;;;;;;13.57;10.00;;;;;;;19.50;nan;100464.31;5044456;28;20062;-72
2023/06/20 00:24:00;;;;;;;16.83;9.88;;;;;;;19.41;nan;100466.00;5044940;28;20036;-72
2023/06/20 00:26:25;;;;;;;19.95;10.43;;;;;;;19.32;nan;100468.50;5044728;28;20031;-72
2023/06/20 00:28:51;;;;;;;17.75;9.55;;;;;;;19.28;nan;100449.59;5065423;28;20115;-72
2023/06/20 00:31:17;;;;;;;16.23;9.80;;;;;;;19.23;nan;100451.50;5042241;28;20059;-73
2023/06/20 00:33:42;;;;;;;17.40;9.65;;;;;;;19.20;nan;100463.56;5048550;28;20090;-72
2023/06/20 00:36:08;;;;;;;15.45;9.77;;;;;;;19.16;nan;100457.16;5065059;28;20730;-73
2023/06/20 00:38:33;;;;;;;16.48;10.00;;;;;;;19.08;nan;100463.91;5046120;28;20032;-73
2023/06/20 00:40:58;;;;;;;18.33;10.23;;;;;;;19.01;nan;100439.41;5062094;28;20546;-71
2023/06/20 00:43:24;;;;;;;14.38;10.05;;;;;;;18.99;nan;100462.13;5044872;28;20024;-70
2023/06/20 00:45:50;;;;;;;13.77;10.25;;;;;;;18.94;nan;100444.28;5064767;28;20138;-72
2023/06/20 00:48:17;;;;;;;15.63;9.57;;;;;;;18.92;nan;100446.44;5062794;28;20021;-72
2023/06/20 00:50:43;;;;;;;15.45;10.15;;;;;;;;;;5064217;28;20032;-72
2023/06/20 00:53:08;;;;;;;12.13;9.45;;;;;;;18.86;nan;100434.97;5046642;28;20923;-72
2023/06/20 00:55:35;;;;;;;14.80;10.15;;;;;;;18.85;nan;100480.63;5047660;28;20032;-72
2023/06/20 00:58:02;;;;;;;13.73;9.45;;;;;;;18.76;nan;100480.41;5063105;28;20016;-72
2023/06/20 01:00:30;;;;;;;15.70;10.27;;;;;;;;;;5064058;28;20643;-71
2023/06/20 01:03:01;;;;;;;15.98;9.38;;;;;;;18.79;nan;100441.72;5066170;28;20044;-72
2023/06/20 01:05:28;;;;;;;18.40;9.65;;;;;;;18.75;nan;100435.31;5062121;28;20032;-71
2023/06/20 01:08:30;;;;;;;13.77;9.82;;;;;;;18.78;nan;100442.81;5061860;28;20036;-72
2023/06/20 01:11:02;;;;;;;14.43;9.15;;;;;;;18.74;nan;100407.06;5046607;28;20032;-72
2023/06/20 01:13:53;;;;;;;18.17;9.68;;;;;;;18.78;nan;100435.59;5063101;28;20478;-72
2023/06/20 01:16:31;;;;;;;14.32;9.30;;;;;;;;;;5063636;28;20036;-72
2023/06/20 01:19:38;;;;;;;15.30;9.60;;;;;;;18.78;nan;100435.59;5063784;28;20051;-71
2023/06/20 01:22:07;;;;;;;14.98;9.93;;;;;;;;;;4960308;28;20053;-71
2023/06/20 01:24:41;;;;;;;19.77;9.82;;;;;;;18.75;nan;100451.31;4962128;28;20069;-72
2023/06/20 01:27:23;;;;;;;15.98;9.45;;;;;;;18.75;nan;100457.47;4944340;28;20043;-72
2023/06/20 01:30:09;;;;;;;14.18;9.68;;;;;;;18.68;nan;100462.31;4959711;28;20466;-72
2023/06/20 01:32:41;;;;;;;13.32;9.70;;;;;;;18.61;nan;100449.28;4949481;28;20165;-71
2023/06/20 01:35:09;;;;;;;14.77;10.15;;;;;;;;;;4966379;28;20540;-72
2023/06/20 01:37:38;;;;;;;16.05;10.00;;;;;;;18.44;nan;100452.34;4966942;28;20053;-72
2023/06/20 01:40:06;;;;;;;18.65;10.32;;;;;;;18.41;nan;100430.75;4965526;28;20043;-73
2023/06/20 01:42:33;;;;;;;17.00;10.88;;;;;;;18.32;nan;100417.22;4966543;28;20057;-72
2023/06/20 01:45:02;;;;;;;17.85;9.70;;;;;;;18.28;nan;100395.63;4952933;28;20547;-73
2023/06/20 01:47:31;;;;;;;14.20;9.98;;;;;;;18.26;nan;100412.97;4964712;28;20031;-73
2023/06/20 01:49:59;;;;;;;17.13;9.75;;;;;;;18.22;nan;100497.22;4963828;28;20148;-73
2023/06/20 01:52:25;;;;;;;17.13;9.80;;;;;;;18.22;nan;100500.69;4952643;28;20532;-73
2023/06/20 01:54:51;;;;;;;17.92;10.15;;;;;;;;;;4963720;28;20122;-73
2023/06/20 01:57:17;;;;;;;15.48;10.20;;;;;;;18.11;nan;100501.00;5041415;28;20470;-73
2023/06/20 01:59:44;;;;;;;15.65;10.50;;;;;;;18.13;nan;100440.25;5067197;28;20028;-74
2023/06/20 02:02:11;;;;;;;17.20;9.88;;;;;;;18.09;nan;100402.69;5064807;28;20045;-73
2023/06/20 02:04:37;;;;;;;14.25;9.73;;;;;;;18.11;nan;100413.84;5065762;28;20032;-74
2023/06/20 02:07:05;;;;;;;23.10;9.98;;;;;;;18.12;nan;100447.41;5067124;28;20035;-73
2023/06/20 02:09:32;;;;;;;15.38;10.05;;;;;;;18.14;nan;100452.50;5064949;28;20081;-74
2023/06/20 02:11:58;;;;;;;17.70;10.07;;;;;;;;;;5064880;28;20040;-72
2023/06/20 02:14:25;;;;;;;16.23;9.48;;;;;;;18.14;nan;100468.47;5065258;28;20040;-73
2023/06/20 02:16:50;;;;;;;11.60;9.20;;;;;;;;;;5063250;28;20563;-73
2023/06/20 02:19:16;;;;;;;15.15;9.65;;;;;;;18.14;nan;100463.16;5066918;28;20032;-72
2023/06/20 02:21:43;;;;;;;15.77;9.45;;;;;;;;;;5067967;28;20028;-73
2023/06/20 02:24:10;;;;;;;14.75;9.98;;;;;;;;;;5066284;28;20116;-73
2023/06/20 02:26:38;;;;;;;15.30;9.90;;;;;;;;;;5065333;28;20033;-72
2023/06/20 02:29:06;;;;;;;14.80;9.65;;;;;;;;;;5048445;28;20025;-72
2023/06/20 02:31:34;;;;;;;18.17;9.32;;;;;;;18.07;nan;100389.63;5067447;28;20028;-72
2023/06/20 02:34:02;;;;;;;17.65;9.45;;;;;;;;;;5064373;28;20024;-72
2023/06/20 02:36:28;;;;;;;15.07;9.65;;;;;;;;;;5047863;28;20078;-73
2023/06/20 02:38:55;;;;;;;18.45;9.93;;;;;;;;;;5067029;28;20496;-73
2023/06/20 02:41:20;;;;;;;18.60;10.20;;;;;;;;;;5048766;28;20020;-73
2023/06/20 02:43:46;;;;;;;17.10;9.88;;;;;;;;;;5065536;28;20020;-72
2023/06/20 02:46:17;;;;;;;17.33;10.13;;;;;;;;;;5047998;28;20112;-74
2023/06/20 02:48:56;;;;;;;17.70;9.55;;;;;;;17.88;nan;100459.78;5061421;28;20047;-73
2023/06/20 02:51:27;;;;;;;14.40;10.32;;;;;;;;;;5065136;28;20032;-72
2023/06/20 02:53:56;;;;;;;16.95;10.52;;;;;;;;;;5064492;28;20520;-72
2023/06/20 02:56:22;;;;;;;19.52;10.00;;;;;;;;;;5039277;28;20068;-72
2023/06/20 02:58:52;;;;;;;14.05;10.00;;;;;;;;;;5065507;28;20031;-71
2023/06/20 03:01:27;;;;;;;16.40;9.70;;;;;;;;;;5065220;28;20041;-71
2023/06/20 03:03:54;;;;;;;14.65;10.18;;;;;;;;;;5063483;28;20356;-71
2023/06/20 03:06:21;;;;;;;16.85;9.73;;;;;;;;;;5063059;28;20408;-73
2023/06/20 03:08:49;;;;;;;17.17;9.73;;;;;;;;;;5065985;28;20032;-72
2023/06/20 03:11:15;;;;;;;18.00;10.77;;;;;;;;;;5063547;28;20032;-72
2023/06/20 03:13:40;;;;;;;17.98;9.95;;;;;;;17.52;nan;100484.59;5046909;28;20074;-72
2023/06/20 03:16:09;;;;;;;20.05;10.18;;;;;;;;;;5044950;28;20042;-72
2023/06/20 03:18:35;;;;;;;13.90;9.50;;;;;;;;;;5063959;28;20033;-73
2023/06/20 03:21:01;;;;;;;14.68;9.50;;;;;;;17.29;nan;100451.38;5045508;28;20432;-73
2023/06/20 03:23:26;;;;;;;17.25;9.48;;;;;;;;;;5064726;28;20449;-72
2023/06/20 03:25:51;;;;;;;17.77;10.37;;;;;;;;;;5064031;28;20486;-72
2023/06/20 03:28:16;;;;;;;24.40;9.97;;;;;;;;;;5066157;28;20035;-73
2023/06/20 03:30:42;;;;;;;13.47;9.50;;;;;;;;;;5058921;28;20105;-71
2023/06/20 03:33:07;;;;;;;18.83;10.67;;;;;;;;;;5066219;28;20375;-72
2023/06/20 03:35:32;;;;;;;20.87;9.77;;;;;;;;;;5064108;28;20032;-72
2023/06/20 03:37:57;;;;;;;16.93;10.07;;;;;;;;;;5064509;28;20116;-74
2023/06/20 03:40:23;;;;;;;20.38;10.10;;;;;;;;;;5045097;28;20186;-72
2023/06/20 03:42:49;;;;;;;18.60;10.77;;;;;;;;;;5063997;28;20059;-72
2023/06/20 03:45:14;;;;;;;20.70;10.35;;;;;;;;;;5063259;28;20029;-72
2023/06/20 03:47:39;;;;;;;16.50;10.30;;;;;;;;;;5064602;28;20608;-72
2023/06/20 03:50:05;;;;;;;20.80;10.47;;;;;;;;;;5065155;28;20121;-72
2023/06/20 03:52:30;;;;;;;18.23;10.13;;;;;;;;;;5065754;28;20069;-72
2023/06/20 03:54:55;;;;;;;14.97;9.90;;;;;;;17.09;nan;100518.69;5061491;28;20490;-72
2023/06/20 03:57:20;;;;;;;16.05;9.75;;;;;;;;;;5064826;28;20427;-73
2023/06/20 03:59:46;;;;;;;17.33;9.97;;;;;;;17.11;nan;100553.03;5061100;28;20149;-73
2023/06/20 04:02:11;;;;;;;14.63;9.85;;;;;;;;;;5065514;28;20040;-72
2023/06/20 04:04:37;;;;;;;24.70;10.77;;;;;;;;;;5061581;28;20039;-73
2023/06/20 04:07:02;;;;;;;16.17;9.65;;;;;;;;;;5064592;28;20119;-73
2023/06/20 04:09:27;;;;;;;15.43;9.95;;;;;;;;;;5063359;28;20036;-73
2023/06/20 04:11:53;;;;;;;14.83;9.67;;;;;;;;;;5044292;28;20040;-73
2023/06/20 04:14:19;;;;;;;16.48;9.85;;;;;;;;;;5044684;28;20269;-72
2023/06/20 04:16:44;;;;;;;17.55;10.45;;;;;;;;;;5063983;28;20035;-73
2023/06/20 04:19:10;;;;;;;17.27;10.10;;;;;;;;;;5064106;28;20027;-73
2023/06/20 04:21:35;;;;;;;15.05;9.43;;;;;;;;;;5065176;28;20036;-73
2023/06/20 04:24:00;;;;;;;20.10;9.67;;;;;;;;;;5064063;28;20398;-73
2023/06/20 04:26:25;;;;;;;17.83;9.53;;;;;;;;;;5045172;28;20319;-73
2023/06/20 04:28:51;;;;;;;20.73;9.23;;;;;;;;;;5062660;28;20280;-73
2023/06/20 04:31:16;;;;;;;19.37;9.70;;;;;;;;;;5064890;28;20273;-73
2023/06/20 04:33:43;;;;;;;23.10;9.18;;;;;;;;;;5062906;28;20029;-72
2023/06/20 04:36:13;;;;;;;12.75;8.88;;;;;;;;;;5045786;28;20066;-72
2023/06/20 04:38:39;;;;;;;20.33;9.40;;;;;;;;;;5061767;28;20044;-73
2023/06/20 04:41:04;;;;;;;17.95;9.57;;;;;;;;;;5062422;28;20104;-73
2023/06/20 04:43:30;;;;;;;26.00;10.00;;;;;;;;;;5062697;28;20031;-74
2023/06/20 04:45:56;;;;;;;18.98;9.25;;;;;;;17.69;nan;100566.06;5061200;28;20032;-73
2023/06/20 04:48:27;;;;;;;14.63;8.68;;;;;;;17.75;nan;100570.34;5063444;28;20048;-72
2023/06/20 04:50:55;;;;;;;18.30;9.05;;;;;;;17.87;nan;100570.88;5044937;28;20112;-73
2023/06/20 04:53:20;;;;;;;12.18;8.63;;;;;;;17.93;nan;100572.44;5062016;28;20024;-74
2023/06/20 04:55:46;;;;;;;12.57;8.90;;;;;;;18.39;nan;100631.00;5063211;28;20040;-74
2023/06/20 04:58:11;;;;;;;15.07;8.85;;;;;;;18.12;nan;100577.22;5063978;28;20028;-74
2023/06/20 05:00:37;;;;;;;17.65;8.75;;;;;;;18.21;nan;100583.59;5046010;28;20403;-74
2023/06/20 05:03:03;;;;;;;14.15;8.23;;;;;;;18.26;nan;100587.03;5077102;28;20046;-74
2023/06/20 05:05:29;;;;;;;17.42;8.73;;;;;;;18.39;nan;100582.19;5079454;28;20483;-73
2023/06/20 05:07:56;;;;;;;13.95;8.93;;;;;;;18.42;nan;100579.78;5082661;28;20012;-70
2023/06/20 05:10:22;;;;;;;19.92;8.55;;;;;;;18.60;nan;100590.91;5081709;28;20024;-72
2023/06/20 05:12:47;;;;;;;14.80;8.55;;;;;;;18.66;nan;100595.94;5082429;28;20032;-72
2023/06/20 05:15:13;;;;;;;12.27;8.70;;;;;;;18.77;nan;100595.94;5083079;28;20028;-73
2023/06/20 05:17:38;;;;;;;14.63;8.77;;;;;;;18.87;nan;100607.34;5083655;28;20081;-72
2023/06/20 05:20:06;;;;;;;13.10;8.43;;;;;;;18.94;nan;100592.91;5081207;28;20024;-73
2023/06/20 05:22:33;;;;;;;14.85;9.00;;;;;;;19.01;nan;100598.72;5078972;28;20028;-72
2023/06/20 05:24:59;;;;;;;14.55;8.32;;;;;;;19.16;nan;100605.88;5081400;28;20426;-72
2023/06/20 05:27:24;;;;;;;19.50;8.82;;;;;;;19.30;nan;100612.19;5081753;28;20115;-72
2023/06/20 05:29:50;;;;;;;15.82;8.43;;;;;;;19.32;nan;100602.81;5082753;28;20024;-73
2023/06/20 05:32:15;;;;;;;10.90;8.27;;;;;;;19.40;nan;100605.97;5082156;28;20040;-72
2023/06/20 05:34:40;;;;;;;13.50;8.20;;;;;;;19.46;nan;100608.31;5082644;28;20077;-73
2023/06/20 05:37:06;;;;;;;22.25;8.07;;;;;;;19.52;nan;100603.72;5082017;28;20025;-72
2023/06/20 05:39:31;;;;;;;15.32;8.48;;;;;;;19.64;nan;100598.81;5082639;28;20043;-71
2023/06/20 05:41:56;;;;;;;13.27;8.50;;;;;;;19.75;nan;100604.88;5081415;28;20562;-73
2023/06/20 05:44:22;;;;;;;16.00;8.40;;;;;;;19.81;nan;100602.97;5081473;28;20016;-72
2023/06/20 05:46:47;;;;;;;12.73;8.23;;;;;;;19.86;nan;100600.25;5084466;28;20248;-74
2023/06/20 05:49:14;;;;;;;9.82;7.70;;;;;;;19.96;nan;100597.47;5083415;28;20114;-72
2023/06/20 05:51:40;;;;;;;15.45;8.30;;;;;;;20.02;nan;100591.00;5082884;28;20024;-74
2023/06/20 05:54:07;;;;;;;19.33;8.85;;;;;;;20.12;nan;100598.91;5081306;28;20347;-73
2023/06/20 05:56:33;;;;;;;12.48;7.88;;;;;;;20.27;nan;100614.00;5084970;28;20546;-73
2023/06/20 05:58:58;;;;;;;11.27;7.78;;;;;;;20.31;nan;100592.84;5081498;28;20047;-73
2023/06/20 06:01:24;;;;;;;12.70;8.00;;;;;;;20.46;nan;100611.38;5081970;28;20054;-73
2023/06/20 06:03:49;;;;;;;10.88;7.72;;;;;;;20.50;nan;100616.97;5084430;28;20036;-73
2023/06/20 06:06:15;;;;;;;13.07;8.05;;;;;;;20.52;nan;100610.25;5085267;28;20020;-73
2023/06/20 06:08:40;;;;;;;14.48;7.80;;;;;;;20.62;nan;100620.06;5085015;28;20045;-72
2023/06/20 06:11:07;;;;;;;17.73;8.10;;;;;;;20.70;nan;100619.41;5083022;28;20063;-72
2023/06/20 06:13:33;;;;;;;17.17;8.45;;;;;;;20.81;nan;100612.06;5083287;28;20024;-71
2023/06/20 06:15:58;;;;;;;15.70;7.70;;;;;;;20.96;nan;100611.03;5082682;28;20077;-70
2023/06/20 06:18:23;;;;;;;13.23;8.00;;;;;;;21.08;nan;100615.97;5084977;28;20027;-71
2023/06/20 06:20:49;;;;;;;12.30;7.85;;;;;;;21.10;nan;100608.44;5082802;28;20660;-71
2023/06/20 06:23:14;;;;;;;14.23;7.97;;;;;;;21.28;nan;100617.53;5086120;28;20085;-72
2023/06/20 06:25:39;;;;;;;11.63;7.57;;;;;;;21.30;nan;100612.69;5084573;28;20024;-73
2023/06/20 06:28:05;;;;;;;15.85;7.70;;;;;;;21.45;nan;100607.13;5086335;28;20024;-72
2023/06/20 06:30:33;;;;;;;16.10;7.32;;;;;;;21.54;nan;100618.75;5084680;28;20047;-73
2023/06/20 06:32:59;;;;;;;15.57;7.72;;;;;;;21.58;nan;100619.78;5088275;28;20024;-71
2023/06/20 06:35:24;;;;;;;14.43;8.02;;;;;;;21.70;nan;100613.16;5084790;28;20698;-70
2023/06/20 06:37:52;;;;;;;12.95;7.40;;;;;;;21.75;nan;100611.19;5084187;28;20032;-71
2023/06/20 06:40:20;;;;;;;11.88;8.05;;;;;;;21.88;nan;100609.63;5083986;28;20016;-72
2023/06/20 06:42:46;;;;;;;12.25;7.95;;;;;;;21.97;nan;100612.41;5081864;28;20019;-71
2023/06/20 06:45:11;;;;;;;8.93;7.15;;;;;;;22.08;nan;100600.41;5081444;28;20438;-70
2023/06/20 06:47:37;;;;;;;17.92;7.70;;;;;;;22.28;nan;100620.72;5084321;28;20112;-69
2023/06/20 06:50:02;;;;;;;17.05;7.30;;;;;;;22.33;nan;100617.94;5085329;28;20028;-70
2023/06/20 06:52:30;;;;;;;11.40;6.80;;;;;;;22.48;nan;100616.81;5067870;28;20611;-69
2023/06/20 06:54:55;;;;;;;7.63;6.47;;;;;;;22.58;nan;100615.81;5081848;28;20024;-70
2023/06/20 06:57:21;;;;;;;9.65;6.95;;;;;;;22.72;nan;100604.00;5083102;28;20034;-69
2023/06/20 06:59:46;;;;;;;8.90;6.47;;;;;;;22.68;nan;100594.16;5084379;28;20179;-70
2023/06/20 07:02:13;;;;;;;9.68;6.18;;;;;;;22.89;nan;100605.22;5070288;28;20049;-70
2023/06/20 07:04:39;;;;;;;8.68;6.47;;;;;;;22.82;nan;100576.13;5060923;28;20060;-70
2023/06/20 07:07:05;;;;;;;9.05;6.88;;;;;;;23.17;nan;100605.19;5046804;28;20458;-71
2023/06/20 07:09:30;;;;;;;13.38;6.40;;;;;;;23.24;nan;100611.72;5063513;28;20843;-70
2023/06/20 07:11:56;;;;;;;9.27;5.88;;;;;;;23.44;nan;100613.13;5065080;28;20028;-70
2023/06/20 07:14:22;;;;;;;10.82;6.38;;;;;;;23.46;nan;100616.28;5063579;28;20034;-70
2023/06/20 07:16:47;;;;;;;12.77;6.15;;;;;;;23.56;nan;100609.91;5045352;28;20051;-70
2023/06/20 07:19:12;;;;;;;10.02;6.45;;;;;;;23.67;nan;100619.28;5064917;28;20111;-71
2023/06/20 07:21:38;;;;;;;14.88;6.57;;;;;;;23.86;nan;100612.94;5046319;28;20135;-70
2023/06/20 07:24:04;;;;;;;7.97;6.45;;;;;;;23.88;nan;100610.72;5064659;28;20029;-71
2023/06/20 07:26:29;;;;;;;13.45;6.28;;;;;;;23.99;nan;100612.03;5065424;28;20025;-71
2023/06/20 07:28:55;;;;;;;10.13;5.97;;;;;;;23.96;nan;100608.06;5064003;28;20017;-71
2023/06/20 07:31:20;;;;;;;8.55;6.28;;;;;;;24.14;nan;100616.22;5063907;28;20033;-70
2023/06/20 07:33:46;;;;;;;10.27;6.55;;;;;;;24.23;nan;100614.38;5064034;28;20028;-70
2023/06/20 07:36:12;;;;;;;11.23;5.57;;;;;;;24.33;nan;100619.44;5046182;28;20107;-70
2023/06/20 07:38:38;;;;;;;7.47;5.85;;;;;;;24.38;nan;100624.69;5046516;28;20511;-71
2023/06/20 07:41:03;;;;;;;8.07;6.70;;;;;;;24.49;nan;100613.66;5046902;28;20035;-71
2023/06/20 07:43:29;;;;;;;9.30;6.05;;;;;;;24.59;nan;100611.47;5045004;28;20433;-70
2023/06/20 07:45:54;;;;;;;7.72;5.88;;;;;;;24.59;nan;100600.72;5063518;28;20513;-70
2023/06/20 07:48:23;;;;;;;6.93;6.03;;;;;;;24.65;nan;100614.00;5045935;28;20078;-70
2023/06/20 07:50:49;;;;;;;9.57;6.50;;;;;;;24.76;nan;100613.41;5063999;28;20382;-70
2023/06/20 07:53:14;;;;;;;9.02;5.80;;;;;;;24.83;nan;100616.41;5043570;28;20024;-70
2023/06/20 07:55:40;;;;;;;10.20;6.32;;;;;;;24.93;nan;100611.84;5065318;28;20060;-70
2023/06/20 07:58:05;;;;;;;8.27;6.07;;;;;;;25.04;nan;100610.38;5063450;28;20016;-71
2023/06/20 08:00:30;;;;;;;9.32;6.30;;;;;;;25.03;nan;100611.50;5065329;28;20356;-70
2023/06/20 08:02:56;;;;;;;10.40;6.30;;;;;;;25.12;nan;100612.31;5062542;28;20117;-70
2023/06/20 08:05:21;;;;;;;8.20;6.10;;;;;;;25.25;nan;100619.44;5061218;28;20042;-71
2023/06/20 08:07:46;;;;;;;9.13;6.15;;;;;;;25.24;nan;100609.00;5041062;28;20043;-71
2023/06/20 08:10:12;;;;;;;11.32;5.93;;;;;;;25.32;nan;100616.28;5060255;28;20020;-70
2023/06/20 08:12:38;;;;;;;11.48;6.47;;;;;;;25.42;nan;100621.34;5045701;28;20064;-68
2023/06/20 08:15:04;;;;;;;9.30;6.03;;;;;;;25.52;nan;100617.50;5042302;28;20880;-69
2023/06/20 08:17:29;;;;;;;7.07;5.85;;;;;;;25.54;nan;100619.91;5059231;28;20033;-70
2023/06/20 08:19:56;;;;;;;6.25;5.65;;;;;;;25.60;nan;100614.03;5063125;28;20027;-69
2023/06/20 08:22:21;;;;;;;9.63;6.47;;;;;;;25.76;nan;100618.88;5041978;28;20448;-69
2023/06/20 08:24:47;;;;;;;7.45;5.57;;;;;;;25.75;nan;100628.09;5065824;28;20031;-69
2023/06/20 08:27:12;;;;;;;8.05;6.07;;;;;;;25.76;nan;100621.59;5058428;28;20115;-69
2023/06/20 08:29:37;;;;;;;6.80;5.88;;;;;;;25.78;nan;100617.44;5064639;28;20033;-69
2023/06/20 08:32:03;;;;;;;8.15;5.90;;;;;;;25.82;nan;100631.09;5061472;28;20029;-70
2023/06/20 08:34:28;;;;;;;8.60;5.88;;;;;;;25.89;nan;100621.41;5062961;28;20028;-69
2023/06/20 08:36:54;;;;;;;7.53;6.00;;;;;;;25.95;nan;100623.94;5062639;28;20427;-72
2023/06/20 08:39:20;;;;;;;8.83;5.93;;;;;;;26.02;nan;100638.50;5061899;28;20326;-72
2023/06/20 08:41:49;;;;;;;9.18;5.65;;;;;;;26.09;nan;100622.59;5061756;28;20372;-72
2023/06/20 08:44:14;;;;;;;8.40;6.35;;;;;;;26.15;nan;100633.25;5061563;28;20033;-72
2023/06/20 08:46:40;;;;;;;9.98;5.60;;;;;;;26.24;nan;100621.28;5060643;28;20502;-72
2023/06/20 08:49:07;;;;;;;6.50;5.80;;;;;;;26.33;nan;100628.53;5061009;28;20024;-70
2023/06/20 08:51:37;;;;;;;8.00;5.47;;;;;;;26.46;nan;100630.22;5059754;28;20891;-71
2023/06/20 08:54:04;;;;;;;7.25;5.15;;;;;;;26.56;nan;100626.38;5063748;28;20024;-70
2023/06/20 08:56:30;;;;;;;7.75;5.72;;;;;;;26.52;nan;100624.28;5062078;28;20029;-69
2023/06/20 08:58:55;;;;;;;7.75;5.72;;;;;;;26.62;nan;100623.16;5064800;28;20086;-70
2023/06/20 09:01:21;;;;;;;10.25;5.43;;;;;;;26.67;nan;100627.56;5063119;28;20044;-70
2023/06/20 09:03:51;;;;;;;8.40;5.85;;;;;;;26.69;nan;100625.34;5062305;28;20056;-73
2023/06/20 09:06:32;;;;;;;10.43;6.05;;;;;;;26.77;nan;100624.50;5060852;28;20025;-73
2023/06/20 09:08:57;;;;;;;8.30;5.60;;;;;;;26.84;nan;100626.66;5062154;28;20906;-73
2023/06/20 09:11:24;;;;;;;5.82;5.22;;;;;;;26.86;nan;100621.72;5061682;28;20173;-72
2023/06/20 09:13:49;;;;;;;9.05;6.03;;;;;;;26.95;nan;100622.44;5043823;28;20027;-72
2023/06/20 09:16:15;;;;;;;9.07;6.05;;;;;;;27.09;nan;100627.59;5061942;28;20036;-72
2023/06/20 09:18:40;;;;;;;7.65;5.72;;;;;;;27.13;nan;100628.53;5063248;28;20034;-73
2023/06/20 09:21:13;;;;;;;9.70;5.88;;;;;;;27.13;nan;100617.72;5044609;28;20191;-73
2023/06/20 09:23:39;;;;;;;9.25;5.57;;;;;;;27.20;nan;100630.69;5062814;28;20028;-71
2023/06/20 09:26:18;;;;;;;7.85;5.65;;;;;;;27.22;nan;100629.25;5060608;28;20030;-70
2023/06/20 09:28:44;;;;;;;6.55;5.40;;;;;;;27.29;nan;100623.31;5060639;28;20588;-69
2023/06/20 09:31:09;;;;;;;8.20;5.82;;;;;;;27.34;nan;100625.78;5062019;28;20132;-71
2023/06/20 09:33:37;;;;;;;8.18;5.43;;;;;;;27.37;nan;100617.03;5062209;28;20138;-71
2023/06/20 09:36:16;;;;;;;8.65;6.15;;;;;;;27.53;nan;100631.50;5046332;28;20680;-71
2023/06/20 09:38:51;;;;;;;7.88;5.43;;;;;;;27.62;nan;100631.41;5061829;28;20036;-70
2023/06/20 09:41:17;;;;;;;10.20;6.10;;;;;;;27.58;nan;100622.38;5063809;28;20024;-72
2023/06/20 09:43:43;;;;;;;9.32;5.80;;;;;;;27.58;nan;100625.88;5060119;28;20029;-72
2023/06/20 09:46:08;;;;;;;7.25;6.15;;;;;;;27.64;nan;100639.19;5063411;28;20048;-72
2023/06/20 09:48:35;;;;;;;11.43;6.10;;;;;;;27.58;nan;100636.72;5063053;28;20025;-72
2023/06/20 09:51:01;;;;;;;15.30;5.72;;;;;;;27.63;nan;100632.19;5043367;28;20032;-72
2023/06/20 09:53:41;;;;;;;6.13;5.53;;;;;;;27.69;nan;100628.16;5065242;28;20036;-72
2023/06/20 09:56:08;;;;;;;8.52;5.60;;;;;;;27.77;nan;100629.97;5066141;28;20038;-72
2023/06/20 09:58:35;;;;;;;7.97;5.90;;;;;;;27.85;nan;100634.53;5067360;28;20028;-71
2023/06/20 10:01:02;;;;;;;9.38;5.85;;;;;;;27.92;nan;100637.50;5066294;28;20401;-72
2023/06/20 10:03:29;;;;;;;6.40;5.68;;;;;;;27.97;nan;100634.56;5065880;28;20090;-72
2023/06/20 10:05:56;;;;;;;8.30;5.72;;;;;;;27.91;nan;100625.06;5042309;28;20478;-72
2023/06/20 10:08:22;;;;;;;13.10;5.82;;;;;;;28.00;nan;100631.16;5070184;28;21439;-73
2023/06/20 10:10:48;;;;;;;6.97;5.40;;;;;;;27.97;nan;100618.31;5067063;28;20025;-76
2023/06/20 10:13:14;;;;;;;7.80;5.60;;;;;;;28.08;nan;100621.34;5069798;28;20024;-76
2023/06/20 10:15:40;;;;;;;8.52;5.47;;;;;;;28.21;nan;100628.34;5067311;28;20032;-76
2023/06/20 10:18:18;;;;;;;6.20;5.50;;;;;;;28.29;nan;100628.59;5067728;28;20020;-76
2023/06/20 10:20:43;;;;;;;11.73;6.25;;;;;;;28.35;nan;100616.38;5065433;28;20444;-76
2023/06/20 10:23:10;;;;;;;6.15;5.45;;;;;;;28.39;nan;100631.63;5065293;28;20033;-73
2023/06/20 10:25:49;;;;;;;6.68;5.70;;;;;;;28.46;nan;100617.53;5066627;28;20016;-72
2023/06/20 10:28:18;;;;;;;11.13;5.45;;;;;;;28.49;nan;100611.44;5050352;28;20387;-72
2023/06/20 10:30:49;;;;;;;10.80;5.75;;;;;;;28.55;nan;100610.06;5047590;28;20475;-73
2023/06/20 10:33:15;;;;;;;13.05;5.95;;;;;;;28.63;nan;100616.50;5041452;28;20033;-72
2023/06/20 10:35:48;;;;;;;9.05;5.30;;;;;;;28.67;nan;100617.41;5067554;28;20386;-73
2023/06/20 10:38:14;;;;;;;11.40;5.70;;;;;;;28.68;nan;100616.25;5064187;28;20051;-72
2023/06/20 10:40:40;;;;;;;6.82;5.68;;;;;;;28.63;nan;100611.06;5065742;28;20486;-73
2023/06/20 10:43:07;;;;;;;7.18;5.32;;;;;;;28.54;nan;100597.66;5047575;28;20482;-72
2023/06/20 10:45:33;;;;;;;10.68;5.60;;;;;;;28.64;nan;100615.38;5049006;28;20039;-73
2023/06/20 10:47:58;;;;;;;7.28;5.60;;;;;;;28.62;nan;100621.13;5066179;28;20119;-72
2023/06/20 10:50:24;;;;;;;7.03;5.93;;;;;;;28.58;nan;100609.38;5064841;28;20155;-72
2023/06/20 10:52:49;;;;;;;8.45;5.93;;;;;;;28.62;nan;100613.00;5063642;28;20021;-72
2023/06/20 10:55:22;;;;;;;7.72;6.30;;;;;;;28.65;nan;100616.94;5066913;28;20151;-73
2023/06/20 10:57:49;;;;;;;8.40;5.40;;;;;;;28.69;nan;100617.84;5065832;28;20111;-73
2023/06/20 11:00:17;;;;;;;8.57;5.78;;;;;;;28.72;nan;100616.38;5047099;28;20054;-74
2023/06/20 11:02:56;;;;;;;8.00;5.95;;;;;;;28.72;nan;100611.72;5063338;28;20102;-72
2023/06/20 11:05:26;;;;;;;10.25;6.00;;;;;;;28.79;nan;100614.66;5063958;28;20024;-72
2023/06/20 11:07:59;;;;;;;9.80;5.68;;;;;;;28.79;nan;100616.56;5060683;28;20036;-73
2023/06/20 11:10:34;;;;;;;6.90;5.55;;;;;;;28.83;nan;100612.84;5063629;28;20024;-73
2023/06/20 11:13:02;;;;;;;9.88;6.57;;;;;;;28.76;nan;100582.81;5059457;28;20399;-73
2023/06/20 11:15:33;;;;;;;11.70;6.40;;;;;;;28.87;nan;100604.00;5065544;28;20024;-72
2023/06/20 11:18:04;;;;;;;10.88;6.70;;;;;;;28.83;nan;100593.88;5046292;28;20060;-73
2023/06/20 11:20:35;;;;;;;8.27;5.50;;;;;;;28.96;nan;100600.03;5065064;28;20022;-73
2023/06/20 11:23:02;;;;;;;9.30;7.60;;;;;;;29.01;nan;100599.78;5038474;28;20032;-72
2023/06/20 11:25:35;;;;;;;8.10;6.00;;;;;;;29.05;nan;100597.97;5063586;28;20021;-73
2023/06/20 11:28:10;;;;;;;9.00;5.72;;;;;;;29.11;nan;100590.38;5065961;28;20029;-73
2023/06/20 11:30:38;;;;;;;24.10;16.63;;;;;;;29.15;nan;100587.78;5063806;28;20032;-72
2023/06/20 11:33:07;;;;;;;9.35;5.93;;;;;;;29.23;nan;100589.53;5066379;28;20032;-72
2023/06/20 11:35:46;;;;;;;9.30;6.13;;;;;;;29.29;nan;100596.31;5063669;28;20032;-70
2023/06/20 11:38:14;;;;;;;9.48;5.45;;;;;;;29.30;nan;100583.53;5065331;28;20040;-72
2023/06/20 11:40:42;;;;;;;7.43;5.70;;;;;;;29.40;nan;100583.81;5066264;28;20099;-73
2023/06/20 11:43:26;;;;;;;9.05;5.40;;;;;;;29.36;nan;100582.94;5046117;28;20452;-71
2023/06/20 11:45:58;;;;;;;8.93;5.75;;;;;;;29.36;nan;100591.06;5062561;28;20021;-72
2023/06/20 11:48:23;;;;;;;7.30;5.40;;;;;;;29.30;nan;100578.09;5047645;28;20058;-72
2023/06/20 11:50:55;;;;;;;6.43;5.40;;;;;;;29.41;nan;100585.38;5045234;28;20608;-72
2023/06/20 11:53:39;;;;;;;9.65;5.55;;;;;;;29.46;nan;100576.97;5061937;28;20108;-72
2023/06/20 11:56:07;;;;;;;8.25;5.90;;;;;;;29.50;nan;100570.84;5062652;28;20031;-72
2023/06/20 11:58:36;;;;;;;7.35;5.57;;;;;;;29.54;nan;100572.53;5065733;28;20032;-72
2023/06/20 12:01:04;;;;;;;;;;;;;;;29.63;nan;100580.50;5063189;28;20029;-72
2023/06/20 12:03:31;;;;;;;8.20;5.83;;;;;;;29.64;nan;100577.44;5065756;28;20389;-72
2023/06/20 12:05:56;;;;;;;10.90;5.97;;;;;;;29.72;nan;100573.00;5063282;28;20982;-72
2023/06/20 12:08:31;;;;;;;10.48;6.20;;;;;;;29.68;nan;100556.63;5042952;28;20036;-71